KHKS

Hawkins Field Airport

Jackson, Mississippi, USA
METAR KHKS 200653Z AUTO 15008KT 10SM FEW055 21/19 A3014 RMK AO2 SLP199 T02060189
Observed Flight Rules
Feb-20 @ 06:53 UTC (24 minutes ago) Visual Flight Rules
Wind Visibility Clouds
150° at 8 knots 10 miles
  • Few at 5,500' AGL
Temperatures Readings
Current 21°C / 70°F
Dewpoint 19°C / 66°F
Humidity 88%
Altimeter 30.14" Hg
Pressure 1019.9 hPa
Elevation 108
METAR KHKS 200653Z AUTO 15008KT 10SM FEW055 21/19 A3014 RMK AO2 SLP199 T02060189
Observed Flight Rules
Feb-20 @ 06:53 UTC
(24 minutes ago)
VFR
Wind Visibility
150° at 8 knots 10 miles
Clouds
  • Few at 5,500' AGL
Temperature Dewpoint
21°C / 70°F 19°C / 66°F
Humidity Altimeter Pressure
88% 30.14" Hg 1019.9 hPa